Time;durP1;ratioP1;P1;durP2;ratioP2;P2;SDS_P1;SDS_P2;PMS_P1;PMS_P2;Temp;Humidity;BMP_temperature;BMP_pressure;BME280_temperature;BME280_humidity;BME280_pressure;Samples;Min_cycle;Max_cycle;Signal;HPM_P1;HPM_P2
2022/03/22 00:01:39;;;;;;;;;;;;;;;9.73;38.54;102468.80;1740181;82;20162;-89
2022/03/22 00:04:06;;;;;;;;;;;;;;;9.72;38.81;102471.54;1730813;81;20134;-87
2022/03/22 00:06:32;;;;;;;;;;;;;;;9.67;38.87;102473.97;1733294;82;20198;-85
2022/03/22 00:08:59;;;;;;;;;;;;;;;9.65;38.96;102475.86;1741604;80;21983;-85
2022/03/22 00:11:25;;;;;;;;;;;;;;;9.64;39.01;102471.52;1739561;81;20150;-85
2022/03/22 00:13:54;;;;;;;;;;;;;;;9.59;39.04;102473.59;1717339;82;20174;-87
2022/03/22 00:16:21;;;;;;;;;;;;;;;9.55;39.20;102470.75;1728749;82;20155;-87
2022/03/22 00:18:48;;;;;;;;;;;;;;;9.51;39.20;102471.90;1732913;81;20155;-85
2022/03/22 00:21:18;;;;;;;;;;;;;;;9.48;39.41;102472.92;1740935;82;21190;-84
2022/03/22 00:23:45;;;;;;;;;;;;;;;9.45;39.78;102471.78;1740343;82;20145;-84
2022/03/22 00:26:11;;;;;;;;;;;;;;;9.46;39.55;102472.62;1737537;81;20174;-84
2022/03/22 00:28:37;;;;;;;;;;;;;;;9.46;39.72;102469.98;1736335;82;20115;-89
2022/03/22 00:31:03;;;;;;;;;;;;;;;9.44;39.87;102470.08;1736243;82;20189;-88
2022/03/22 00:33:28;;;;;;;;;;;;;;;9.41;39.93;102466.30;1739854;82;21238;-88
2022/03/22 00:35:54;;;;;;;;;;;;;;;9.62;39.52;102468.14;1736086;80;20125;-89
2022/03/22 00:38:20;;;;;;;;;;;;;;;9.67;39.54;102468.70;1734422;80;20198;-85
2022/03/22 00:40:46;;;;;;;;;;;;;;;9.37;40.06;102463.49;1734988;81;20974;-89
2022/03/22 00:43:11;;;;;;;;;;;;;;;9.36;40.08;102463.58;1738042;82;20173;-88
2022/03/22 00:45:37;;;;;;;;;;;;;;;9.31;40.35;102464.69;1736034;82;21960;-88
2022/03/22 00:48:04;;;;;;;;;;;;;;;9.25;40.75;102462.41;1735754;82;20438;-89
2022/03/22 00:50:33;;;;;;;;;;;;;;;9.26;40.41;102468.53;1735527;81;20224;-88
2022/03/22 00:52:59;;;;;;;;;;;;;;;9.25;40.43;102466.85;1749625;81;20963;-89
2022/03/22 00:55:27;;;;;;;;;;;;;;;9.23;40.57;102462.12;1755193;80;20188;-91
2022/03/22 00:57:53;;;;;;;;;;;;;;;9.17;41.00;102463.34;1753472;81;21181;-90
2022/03/22 01:00:19;;;;;;;;;;;;;;;9.17;40.63;102459.39;1757014;81;20676;-90
2022/03/22 01:02:49;;;;;;;;;;;;;;;9.10;41.01;102459.36;1755612;81;20106;-88
2022/03/22 01:05:17;;;;;;;;;;;;;;;9.06;41.18;102461.78;1748887;81;21549;-90
2022/03/22 01:07:44;;;;;;;;;;;;;;;9.03;40.83;102454.08;1757807;81;20148;-86
2022/03/22 01:10:11;;;;;;;;;;;;;;;8.98;40.86;102454.34;1758592;80;21994;-90
2022/03/22 01:12:37;;;;;;;;;;;;;;;9.01;40.84;102455.48;1757095;80;20477;-87
2022/03/22 01:15:04;;;;;;;;;;;;;;;9.03;40.84;102451.45;1756688;80;20198;-89
2022/03/22 01:17:31;;;;;;;;;;;;;;;9.04;40.75;102453.13;1759542;81;20168;-88
2022/03/22 01:19:58;;;;;;;;;;;;;;;9.04;40.82;102451.81;1755409;81;20264;-86
2022/03/22 01:22:25;;;;;;;;;;;;;;;9.01;40.85;102450.67;1756764;81;21127;-87
2022/03/22 01:24:52;;;;;;;;;;;;;;;8.97;41.19;102445.57;1757677;81;20440;-89
2022/03/22 01:27:20;;;;;;;;;;;;;;;8.97;41.04;102449.53;1757598;81;20205;-88
2022/03/22 01:29:47;;;;;;;;;;;;;;;8.93;40.93;102449.34;1755349;81;20172;-88
2022/03/22 01:32:13;;;;;;;;;;;;;;;8.88;41.06;102453.17;1755600;80;20452;-89
2022/03/22 01:34:39;;;;;;;;;;;;;;;8.81;41.51;102455.31;1755947;80;22152;-88
2022/03/22 01:37:05;;;;;;;;;;;;;;;8.77;41.47;102453.30;1754349;80;20124;-86
2022/03/22 01:39:30;;;;;;;;;;;;;;;8.74;41.59;102452.64;1753912;80;20134;-88
2022/03/22 01:41:57;;;;;;;;;;;;;;;8.70;41.50;102449.79;1753948;80;20321;-88
2022/03/22 01:44:25;;;;;;;;;;;;;;;8.68;41.57;102455.62;1751933;80;20135;-88
2022/03/22 01:46:51;;;;;;;;;;;;;;;8.55;42.19;102449.73;1755514;80;21354;-88
2022/03/22 01:49:19;;;;;;;;;;;;;;;8.48;42.14;102448.36;1761772;80;20161;-87
2022/03/22 01:51:45;;;;;;;;;;;;;;;8.46;42.25;102449.41;1739868;80;20189;-87
2022/03/22 01:54:12;;;;;;;;;;;;;;;8.38;42.80;102448.00;1746436;81;20480;-90
2022/03/22 01:56:37;;;;;;;;;;;;;;;8.31;42.94;102445.79;1734619;81;20229;-89
2022/03/22 01:59:03;;;;;;;;;;;;;;;8.20;43.33;102450.33;1751867;81;20996;-89
2022/03/22 02:06:58;;;;;;;;;;;;;;;8.16;42.98;102450.97;1748971;80;20183;-89
2022/03/22 02:09:24;;;;;;;;;;;;;;;8.19;43.03;102452.59;1737818;81;21036;-85
2022/03/22 02:11:49;;;;;;;;;;;;;;;8.15;43.28;102450.58;1744847;81;21163;-89
2022/03/22 02:14:15;;;;;;;;;;;;;;;8.13;43.41;102451.14;1741034;81;20185;-87
2022/03/22 02:16:40;;;;;;;;;;;;;;;8.10;43.71;102448.67;1751274;81;20153;-89
2022/03/22 02:19:08;;;;;;;;;;;;;;;8.12;43.25;102442.84;1744531;80;20110;-86
2022/03/22 02:21:33;;;;;;;;;;;;;;;8.21;43.10;102443.66;1742812;81;20165;-88
2022/03/22 02:23:59;;;;;;;;;;;;;;;8.19;43.12;102442.91;1745477;80;21055;-87
2022/03/22 02:26:25;;;;;;;;;;;;;;;8.17;42.95;102447.42;1745291;80;20306;-88
2022/03/22 02:28:53;;;;;;;;;;;;;;;8.14;43.33;102446.27;1735060;81;20174;-87
2022/03/22 02:31:26;;;;;;;;;;;;;;;8.18;43.11;102442.52;1745480;81;20500;-84
2022/03/22 02:33:52;;;;;;;;;;;;;;;8.09;43.09;102449.59;1738526;81;20153;-90
2022/03/22 02:36:18;;;;;;;;;;;;;;;8.06;43.19;102448.44;1742218;81;21137;-84
2022/03/22 02:38:43;;;;;;;;;;;;;;;8.03;43.45;102451.23;1755744;81;20146;-86
2022/03/22 02:41:24;;;;;;;;;;;;;;;7.86;43.40;102451.70;1740116;81;20776;-85
2022/03/22 02:43:50;;;;;;;;;;;;;;;7.81;43.69;102453.70;1747006;81;20148;-88
2022/03/22 02:46:16;;;;;;;;;;;;;;;7.74;43.97;102453.66;1747062;81;20186;-89
2022/03/22 02:48:42;;;;;;;;;;;;;;;7.73;43.93;102450.63;1749041;80;21853;-87
2022/03/22 02:51:08;;;;;;;;;;;;;;;7.72;43.87;102447.61;1745409;81;20161;-87
2022/03/22 02:53:34;;;;;;;;;;;;;;;7.82;43.90;102457.20;1746788;80;20148;-88
2022/03/22 02:55:59;;;;;;;;;;;;;;;7.70;43.87;102452.11;1741982;81;20617;-87
2022/03/22 02:58:25;;;;;;;;;;;;;;;7.66;44.29;102454.50;1747493;80;20240;-86
2022/03/22 03:00:50;;;;;;;;;;;;;;;7.59;44.48;102448.72;1750591;80;21100;-86
2022/03/22 03:03:20;;;;;;;;;;;;;;;7.61;44.59;102453.91;1751125;81;20489;-86
2022/03/22 03:05:43;;;;;;;;;;;;;;;7.57;44.68;102465.50;1747627;81;20080;-89
2022/03/22 03:08:09;;;;;;;;;;;;;;;7.58;44.50;102467.20;1742959;81;20109;-83
2022/03/22 03:10:35;;;;;;;;;;;;;;;7.58;44.54;102467.20;1743198;81;20161;-85
2022/03/22 03:13:02;;;;;;;;;;;;;;;7.58;44.92;102469.84;1746565;81;21610;-87
2022/03/22 03:15:28;;;;;;;;;;;;;;;7.56;44.74;102475.17;1749187;80;20202;-87
2022/03/22 03:17:53;;;;;;;;;;;;;;;7.53;44.51;102470.91;1751717;81;21018;-90
2022/03/22 03:20:19;;;;;;;;;;;;;;;7.52;44.53;102471.03;1746361;80;20167;-88
2022/03/22 03:22:44;;;;;;;;;;;;;;;7.52;44.58;102472.34;1748390;81;20154;-87
2022/03/22 03:25:10;;;;;;;;;;;;;;;7.50;44.70;102475.05;1739774;81;21122;-86
2022/03/22 03:27:36;;;;;;;;;;;;;;;7.49;44.99;102472.02;1736457;80;20863;-85
2022/03/22 03:30:04;;;;;;;;;;;;;;;7.46;44.69;102474.81;1742100;81;20892;-89
2022/03/22 03:32:30;;;;;;;;;;;;;;;7.45;44.59;102477.04;1739435;80;20193;-88
2022/03/22 03:34:56;;;;;;;;;;;;;;;7.45;44.73;102471.78;1740103;81;20198;-85
2022/03/22 03:37:24;;;;;;;;;;;;;;;7.44;44.87;102472.73;1742652;80;22456;-88
2022/03/22 03:39:50;;;;;;;;;;;;;;;7.42;45.09;102471.94;1733197;81;20506;-85
2022/03/22 03:42:16;;;;;;;;;;;;;;;7.44;45.14;102475.80;1746182;81;20214;-88
2022/03/22 03:47:26;;;;;;;;;;;;;;;7.41;45.34;102479.46;1737094;81;20131;-84
2022/03/22 03:50:01;;;;;;;;;;;;;;;7.43;45.27;102478.91;1739979;81;20342;-85
2022/03/22 03:52:31;;;;;;;;;;;;;;;7.46;45.23;102482.70;1741928;80;20426;-83
2022/03/22 03:54:57;;;;;;;;;;;;;;;7.46;45.21;102477.44;1745840;81;20128;-85
2022/03/22 03:57:24;;;;;;;;;;;;;;;7.47;45.22;102483.09;1739081;81;20793;-87
2022/03/22 03:59:50;;;;;;;;;;;;;;;7.48;45.30;102481.30;1736279;81;20443;-87
2022/03/22 04:02:16;;;;;;;;;;;;;;;7.49;45.06;102474.66;1747211;80;21090;-85
2022/03/22 04:04:42;;;;;;;;;;;;;;;7.47;45.31;102476.52;1734243;80;20285;-83
2022/03/22 04:07:10;;;;;;;;;;;;;;;7.50;45.35;102480.75;1750604;81;20193;-85
2022/03/22 04:09:37;;;;;;;;;;;;;;;7.51;45.48;102485.92;1737468;81;20185;-88
2022/03/22 04:12:03;;;;;;;;;;;;;;;7.52;45.42;102487.64;1752109;80;20192;-88
2022/03/22 04:14:28;;;;;;;;;;;;;;;7.52;45.51;102485.02;1747253;80;22142;-88
2022/03/22 04:16:56;;;;;;;;;;;;;;;7.50;45.44;102484.25;1744859;81;20126;-85
2022/03/22 04:19:22;;;;;;;;;;;;;;;7.48;45.79;102487.87;1744819;81;20126;-86
2022/03/22 04:21:49;;;;;;;;;;;;;;;7.48;45.50;102488.71;1754386;81;20180;-85
2022/03/22 04:24:14;;;;;;;;;;;;;;;7.48;45.49;102488.71;1738049;81;20233;-85
2022/03/22 04:26:43;;;;;;;;;;;;;;;7.43;45.59;102493.36;1739128;81;21095;-85
2022/03/22 04:34:39;;;;;;;;;;;;;;;7.29;45.72;102491.43;1748117;81;20147;-85
2022/03/22 04:37:06;;;;;;;;;;;;;;;7.29;45.71;102491.43;1750014;81;20255;-87
2022/03/22 04:39:33;;;;;;;;;;;;;;;7.31;45.77;102486.09;1740441;81;21218;-85
2022/03/22 04:41:59;;;;;;;;;;;;;;;7.26;46.14;102488.12;1741613;81;20176;-86
2022/03/22 04:44:26;;;;;;;;;;;;;;;7.26;46.37;102485.48;1742247;81;20188;-88
2022/03/22 04:46:52;;;;;;;;;;;;;;;7.27;46.49;102493.73;1736678;81;20178;-86
2022/03/22 04:49:18;;;;;;;;;;;;;;;7.23;46.48;102490.90;1742529;81;20169;-87
2022/03/22 04:57:11;;;;;;;;;;;;;;;7.19;46.39;102491.05;1752332;81;20150;-89
2022/03/22 04:59:37;;;;;;;;;;;;;;;7.21;46.49;102496.67;1752146;81;20184;-88
2022/03/22 05:02:03;;;;;;;;;;;;;;;7.15;47.00;102499.16;1745916;80;20751;-86
2022/03/22 05:04:28;;;;;;;;;;;;;;;7.14;47.22;102495.66;1747712;81;21265;-90
2022/03/22 05:06:54;;;;;;;;;;;;;;;7.12;48.07;102497.52;1750951;81;20839;-86
2022/03/22 05:09:20;;;;;;;;;;;;;;;7.08;48.29;102495.12;1751027;80;20098;-85
2022/03/22 05:11:45;;;;;;;;;;;;;;;6.87;50.20;102503.12;1743151;80;20225;-90
2022/03/22 05:14:11;;;;;;;;;;;;;;;6.71;50.88;102500.39;1740748;81;20118;-87
2022/03/22 05:16:36;;;;;;;;;;;;;;;6.47;51.67;102502.38;1739171;80;21092;-88
2022/03/22 05:19:04;;;;;;;;;;;;;;;6.63;50.83;102505.13;1746036;81;20421;-90
2022/03/22 05:21:29;;;;;;;;;;;;;;;6.72;50.98;102504.70;1743581;81;20485;-85
2022/03/22 05:23:55;;;;;;;;;;;;;;;6.77;51.44;102505.33;1743150;81;20174;-88
2022/03/22 05:26:20;;;;;;;;;;;;;;;6.91;51.04;102503.82;1739438;80;20604;-85
2022/03/22 05:28:46;;;;;;;;;;;;;;;6.98;51.14;102492.94;1747471;80;21975;-84
2022/03/22 05:31:13;;;;;;;;;;;;;;;7.01;51.61;102505.09;1740345;80;20166;-89
2022/03/22 05:33:38;;;;;;;;;;;;;;;7.05;51.60;102496.58;1736010;81;20212;-88
2022/03/22 05:36:05;;;;;;;;;;;;;;;7.10;51.53;102500.70;1745047;81;20178;-88
2022/03/22 05:38:31;;;;;;;;;;;;;;;7.09;51.48;102498.14;1737595;80;20489;-85
2022/03/22 05:40:57;;;;;;;;;;;;;;;7.16;51.00;102501.71;1739584;81;21165;-86
2022/03/22 05:43:24;;;;;;;;;;;;;;;7.14;51.33;102496.97;1741289;81;20138;-86
2022/03/22 05:45:50;;;;;;;;;;;;;;;7.23;51.05;102500.09;1733048;81;20213;-86
2022/03/22 05:48:16;;;;;;;;;;;;;;;7.25;51.14;102498.23;1741409;81;20279;-85
2022/03/22 05:50:42;;;;;;;;;;;;;;;7.38;50.77;102499.33;1742916;81;20165;-85
2022/03/22 05:53:07;;;;;;;;;;;;;;;7.52;50.57;102500.78;1736007;81;21126;-85
2022/03/22 05:55:33;;;;;;;;;;;;;;;7.47;50.84;102496.23;1721171;82;20175;-85
2022/03/22 05:57:58;;;;;;;;;;;;;;;7.52;50.74;102500.78;1722987;82;20124;-82
2022/03/22 06:00:24;;;;;;;;;;;;;;;7.48;51.00;102501.86;1724800;82;20470;-85
2022/03/22 06:02:50;;;;;;;;;;;;;;;7.55;50.78;102505.89;1723047;82;20127;-85
2022/03/22 06:05:15;;;;;;;;;;;;;;;7.72;50.56;102512.05;1725977;82;21187;-85
2022/03/22 06:07:41;;;;;;;;;;;;;;;7.84;50.27;102506.15;1721941;81;20294;-87
2022/03/22 06:10:07;;;;;;;;;;;;;;;7.85;50.46;102512.28;1724090;82;20161;-86
2022/03/22 06:12:38;;;;;;;;;;;;;;;7.89;50.43;102517.75;1722126;82;20215;-89
2022/03/22 06:15:23;;;;;;;;;;;;;;;7.96;50.21;102511.72;1720820;82;20465;-91
2022/03/22 06:17:30;;;;;;;;;;;;;;;7.98;50.35;102508.53;1716718;82;20180;-91
2022/03/22 06:19:57;;;;;;;;;;;;;;;8.01;50.23;102507.05;1719370;82;20136;-88
2022/03/22 06:22:23;;;;;;;;;;;;;;;8.13;49.95;102509.03;1727283;82;20893;-90
2022/03/22 06:24:48;;;;;;;;;;;;;;;8.18;49.87;102507.00;1719443;82;20219;-88
2022/03/22 06:27:17;;;;;;;;;;;;;;;8.22;50.03;102504.59;1720545;82;20155;-89
2022/03/22 06:29:41;;;;;;;;;;;;;;;8.23;50.08;102507.63;1726693;82;20154;-84
2022/03/22 06:32:11;;;;;;;;;;;;;;;8.26;50.14;102503.51;1722130;81;20496;-89
2022/03/22 06:34:35;;;;;;;;;;;;;;;8.37;49.94;102509.95;1724850;82;20234;-85
2022/03/22 06:37:03;;;;;;;;;;;;;;;8.28;50.38;102509.98;1728924;82;20147;-88
2022/03/22 06:39:29;;;;;;;;;;;;;;;8.32;50.18;102510.68;1721459;82;20159;-85
2022/03/22 06:41:55;;;;;;;;;;;;;;;8.42;49.91;102506.59;1723016;82;21108;-90
2022/03/22 06:44:20;;;;;;;;;;;;;;;8.51;49.79;102513.19;1726146;82;20135;-87
2022/03/22 06:46:46;;;;;;;;;;;;;;;8.45;50.13;102514.36;1719957;82;20270;-92
2022/03/22 06:49:12;;;;;;;;;;;;;;;8.51;50.27;102514.02;1717996;82;20147;-89
2022/03/22 06:51:38;;;;;;;;;;;;;;;8.67;50.22;102513.18;1722601;82;20237;-92
2022/03/22 06:54:03;;;;;;;;;;;;;;;8.73;50.28;102519.42;1736224;81;21175;-92
2022/03/22 06:56:29;;;;;;;;;;;;;;;8.95;50.15;102513.34;1741649;80;20132;-92
2022/03/22 06:58:54;;;;;;;;;;;;;;;9.00;50.11;102512.24;1744657;80;20222;-93
2022/03/22 07:01:20;;;;;;;;;;;;;;;9.23;49.74;102514.40;1738095;81;20146;-92
2022/03/22 07:03:45;;;;;;;;;;;;;;;9.40;49.46;102511.22;1735872;81;20926;-91
2022/03/22 07:06:11;;;;;;;;;;;;;;;9.47;49.35;102511.25;1742853;81;21844;-87
2022/03/22 07:08:37;;;;;;;;;;;;;;;9.64;49.20;102515.05;1747987;81;20159;-88
2022/03/22 07:13:46;;;;;;;;;;;;;;;9.87;49.16;102518.11;1736055;80;20154;-91
2022/03/22 07:16:12;;;;;;;;;;;;;;;9.96;49.14;102523.28;1747759;81;20456;-90
2022/03/22 07:18:38;;;;;;;;;;;;;;;10.12;48.85;102515.29;1737133;80;21090;-90
2022/03/22 07:21:05;;;;;;;;;;;;;;;10.22;48.67;102516.40;1744027;80;20220;-90
2022/03/22 07:23:31;;;;;;;;;;;;;;;10.30;48.60;102518.56;1748191;79;20133;-88
2022/03/22 07:25:56;;;;;;;;;;;;;;;10.38;48.46;102518.98;1741298;81;20177;-90
2022/03/22 07:28:22;;;;;;;;;;;;;;;10.43;48.56;102516.05;1751847;80;20132;-87
2022/03/22 07:30:48;;;;;;;;;;;;;;;10.54;48.36;102516.21;1741569;81;21137;-86
2022/03/22 07:33:16;;;;;;;;;;;;;;;10.58;48.44;102511.09;1739154;80;20731;-89
2022/03/22 07:35:42;;;;;;;;;;;;;;;10.66;48.30;102511.47;1745578;80;20256;-88
2022/03/22 07:38:08;;;;;;;;;;;;;;;10.62;48.38;102515.23;1740262;80;20528;-92
2022/03/22 07:40:34;;;;;;;;;;;;;;;10.66;48.43;102508.83;1734787;80;20262;-88
2022/03/22 07:43:00;;;;;;;;;;;;;;;10.75;48.21;102510.88;1747917;80;21021;-91
2022/03/22 07:45:25;;;;;;;;;;;;;;;10.88;48.40;102508.77;1741805;81;20219;-90
2022/03/22 07:47:51;;;;;;;;;;;;;;;10.97;47.89;102510.80;1743191;81;20463;-88
2022/03/22 07:53:06;;;;;;;;;;;;;;;11.16;47.59;102506.47;1733455;80;20578;-89
2022/03/22 07:55:37;;;;;;;;;;;;;;;11.29;47.16;102502.52;1747065;80;21213;-88
2022/03/22 07:58:05;;;;;;;;;;;;;;;11.43;46.17;102509.05;1755906;80;20134;-88
2022/03/22 08:00:30;;;;;;;;;;;;;;;11.53;45.88;102507.09;1743362;80;20196;-92
2022/03/22 08:02:58;;;;;;;;;;;;;;;11.63;45.80;102510.83;1743057;80;20153;-90
2022/03/22 08:05:26;;;;;;;;;;;;;;;11.74;45.37;102509.61;1746162;80;20306;-92
2022/03/22 08:07:53;;;;;;;;;;;;;;;11.82;45.25;102508.63;1754299;80;20634;-92
2022/03/22 08:10:20;;;;;;;;;;;;;;;11.85;44.78;102508.41;1753861;80;20476;-88
2022/03/22 08:12:46;;;;;;;;;;;;;;;11.97;44.56;102508.53;1751363;80;20202;-91
2022/03/22 08:15:12;;;;;;;;;;;;;;;12.10;44.41;102506.70;1743853;80;20209;-91
2022/03/22 08:17:39;;;;;;;;;;;;;;;12.19;44.08;102502.08;1737515;80;20230;-92
2022/03/22 08:20:07;;;;;;;;;;;;;;;12.35;43.82;102499.66;1745726;80;21161;-91
2022/03/22 08:22:54;;;;;;;;;;;;;;;12.49;43.55;102496.89;1755065;80;20152;-91
2022/03/22 08:25:28;;;;;;;;;;;;;;;12.66;43.16;102498.31;1754797;80;20219;-87
2022/03/22 08:27:54;;;;;;;;;;;;;;;12.87;42.80;102496.36;1746416;80;20274;-89
2022/03/22 08:30:21;;;;;;;;;;;;;;;13.05;41.91;102502.09;1744850;80;20232;-92
2022/03/22 08:32:50;;;;;;;;;;;;;;;13.23;41.72;102491.42;1740655;80;21024;-92
2022/03/22 08:35:19;;;;;;;;;;;;;;;13.40;40.93;102492.84;1749730;80;20546;-90
2022/03/22 08:37:45;;;;;;;;;;;;;;;13.52;40.47;102493.72;1755293;80;20478;-93
2022/03/22 08:40:13;;;;;;;;;;;;;;;13.67;39.97;102496.15;1740803;80;20255;-90
2022/03/22 08:42:43;;;;;;;;;;;;;;;13.88;39.84;102498.47;1746205;80;20181;-90
2022/03/22 08:45:10;;;;;;;;;;;;;;;14.03;39.90;102488.45;1746758;80;20123;-89
2022/03/22 08:47:36;;;;;;;;;;;;;;;14.04;39.35;102479.99;1747613;80;20122;-90
2022/03/22 08:50:05;;;;;;;;;;;;;;;14.13;39.40;102484.58;1744689;80;20141;-86
2022/03/22 08:52:31;;;;;;;;;;;;;;;14.19;39.24;102474.79;1742834;80;20203;-91
2022/03/22 08:54:56;;;;;;;;;;;;;;;14.28;39.21;102485.17;1745188;80;20164;-92
2022/03/22 08:57:22;;;;;;;;;;;;;;;14.34;39.22;102486.85;1742342;81;21056;-90
2022/03/22 08:59:48;;;;;;;;;;;;;;;14.38;39.07;102483.95;1741419;81;20181;-90
2022/03/22 09:02:15;;;;;;;;;;;;;;;14.42;39.02;102478.72;1749344;81;20158;-91
2022/03/22 09:07:25;;;;;;;;;;;;;;;14.59;39.10;102478.22;1743588;80;20139;-90
2022/03/22 09:09:50;;;;;;;;;;;;;;;14.63;39.23;102475.68;1746230;81;21776;-86
2022/03/22 09:12:16;;;;;;;;;;;;;;;14.71;38.80;102475.05;1737029;81;20158;-90
2022/03/22 09:14:41;;;;;;;;;;;;;;;14.72;38.44;102473.59;1745462;81;20177;-93
2022/03/22 09:17:07;;;;;;;;;;;;;;;14.71;38.54;102465.28;1736659;80;20126;-93
2022/03/22 09:19:36;;;;;;;;;;;;;;;14.84;38.62;102465.10;1738837;81;20632;-91
2022/03/22 09:22:05;;;;;;;;;;;;;;;14.84;38.11;102461.61;1741649;81;21484;-92
2022/03/22 09:24:36;;;;;;;;;;;;;;;14.84;38.54;102462.44;1739267;81;20231;-92
2022/03/22 09:27:02;;;;;;;;;;;;;;;14.88;38.29;102451.05;1748200;80;20235;-94
2022/03/22 09:29:28;;;;;;;;;;;;;;;14.98;38.45;102451.98;1753554;81;20756;-91
2022/03/22 09:31:53;;;;;;;;;;;;;;;15.08;38.28;102444.89;1744016;81;20155;-89
2022/03/22 09:34:19;;;;;;;;;;;;;;;15.30;38.12;102457.72;1748935;81;21087;-90
2022/03/22 09:36:45;;;;;;;;;;;;;;;15.42;37.99;102445.19;1748042;80;20197;-87
2022/03/22 09:39:10;;;;;;;;;;;;;;;15.33;38.02;102444.14;1747997;80;20145;-89
2022/03/22 09:41:37;;;;;;;;;;;;;;;15.32;37.66;102434.49;1739974;81;20178;-88
2022/03/22 09:44:03;;;;;;;;;;;;;;;15.39;37.55;102436.97;1748900;81;20345;-86
2022/03/22 09:46:28;;;;;;;;;;;;;;;15.50;37.51;102436.55;1746859;81;21102;-90
2022/03/22 09:48:54;;;;;;;;;;;;;;;15.55;36.60;102436.98;1750748;81;20132;-89
2022/03/22 09:54:07;;;;;;;;;;;;;;;15.68;37.20;102426.13;1750927;81;20083;-87
2022/03/22 09:56:31;;;;;;;;;;;;;;;15.94;36.78;102430.50;1748510;81;20162;-86
2022/03/22 09:59:02;;;;;;;;;;;;;;;15.94;35.35;102422.51;1743549;81;21050;-87
2022/03/22 10:01:28;;;;;;;;;;;;;;;15.98;35.52;102425.27;1743175;81;20140;-87
2022/03/22 10:04:12;;;;;;;;;;;;;;;16.02;35.41;102423.16;1745763;81;20298;-88
2022/03/22 10:06:37;;;;;;;;;;;;;;;16.08;36.16;102419.48;1741184;81;20172;-88
2022/03/22 10:09:07;;;;;;;;;;;;;;;16.28;35.40;102419.51;1736556;81;21184;-88
2022/03/22 10:11:41;;;;;;;;;;;;;;;16.24;34.99;102420.78;1740732;81;21128;-88
2022/03/22 10:14:10;;;;;;;;;;;;;;;16.35;34.74;102411.32;1737302;81;20216;-88
2022/03/22 10:16:50;;;;;;;;;;;;;;;16.48;34.28;102412.38;1731087;81;20194;-87
2022/03/22 10:19:19;;;;;;;;;;;;;;;16.56;33.62;102414.34;1741828;81;21081;-89
2022/03/22 10:21:45;;;;;;;;;;;;;;;16.68;33.34;102413.22;1742181;81;20206;-88
2022/03/22 10:24:12;;;;;;;;;;;;;;;16.64;31.33;102418.01;1742496;81;21071;-89
2022/03/22 10:26:38;;;;;;;;;;;;;;;16.71;31.87;102404.94;1740140;81;20138;-88
2022/03/22 10:29:07;;;;;;;;;;;;;;;16.64;31.44;102414.00;1737950;81;20198;-89
2022/03/22 10:31:35;;;;;;;;;;;;;;;16.71;30.71;102416.95;1734439;81;20177;-88
2022/03/22 10:34:00;;;;;;;;;;;;;;;16.79;31.06;102407.73;1740109;81;20169;-87
2022/03/22 10:36:26;;;;;;;;;;;;;;;16.84;30.81;102400.16;1741774;81;21097;-88
2022/03/22 10:38:59;;;;;;;;;;;;;;;16.96;30.66;102406.70;1738391;81;20252;-88
2022/03/22 10:41:30;;;;;;;;;;;;;;;16.90;30.34;102400.61;1738338;81;20189;-89
2022/03/22 10:44:16;;;;;;;;;;;;;;;17.06;30.56;102395.53;1731479;81;20166;-88
2022/03/22 10:46:42;;;;;;;;;;;;;;;17.20;30.30;102397.73;1738620;81;20186;-88
2022/03/22 10:49:18;;;;;;;;;;;;;;;17.32;29.45;102390.38;1748564;80;40166;-89
2022/03/22 10:51:46;;;;;;;;;;;;;;;17.31;27.92;102390.52;1737402;81;20593;-87
2022/03/22 10:54:17;;;;;;;;;;;;;;;17.47;28.65;102390.76;1745244;81;20514;-87
2022/03/22 10:56:51;;;;;;;;;;;;;;;17.53;28.61;102379.48;1731962;82;20199;-89
2022/03/22 10:59:19;;;;;;;;;;;;;;;17.56;29.35;102382.37;1729894;81;20229;-88
2022/03/22 11:01:46;;;;;;;;;;;;;;;17.49;29.08;102378.09;1728652;82;21091;-85
2022/03/22 11:04:15;;;;;;;;;;;;;;;17.59;29.20;102378.89;1734874;81;20162;-89
2022/03/22 11:06:41;;;;;;;;;;;;;;;17.65;29.79;102368.59;1737562;81;20114;-88
2022/03/22 11:09:07;;;;;;;;;;;;;;;17.69;28.97;102369.98;1735041;81;20130;-89
2022/03/22 11:11:32;;;;;;;;;;;;;;;17.75;29.04;102366.72;1734331;82;20147;-86
2022/03/22 11:13:58;;;;;;;;;;;;;;;17.90;28.93;102365.27;1729918;81;21160;-89
2022/03/22 11:16:27;;;;;;;;;;;;;;;18.19;28.73;102361.53;1735158;82;20201;-87
2022/03/22 11:18:59;;;;;;;;;;;;;;;18.21;28.11;102356.03;1738534;82;20454;-90
2022/03/22 11:21:25;;;;;;;;;;;;;;;18.36;27.77;102351.00;1736993;82;20143;-87
2022/03/22 11:23:51;;;;;;;;;;;;;;;18.51;27.53;102346.79;1731267;81;20213;-89
2022/03/22 11:26:19;;;;;;;;;;;;;;;18.66;27.40;102341.73;1739875;80;21036;-88
2022/03/22 11:28:46;;;;;;;;;;;;;;;18.74;27.15;102343.63;1735501;82;20171;-88
2022/03/22 11:31:13;;;;;;;;;;;;;;;18.86;27.15;102339.70;1738139;82;20202;-87
2022/03/22 11:36:28;;;;;;;;;;;;;;;18.84;27.13;102338.52;1742586;82;20126;-89
2022/03/22 11:38:58;;;;;;;;;;;;;;;18.99;27.14;102334.78;1737014;82;21106;-89
2022/03/22 11:44:17;;;;;;;;;;;;;;;18.96;26.62;102327.57;1734419;81;20158;-87
2022/03/22 11:46:43;;;;;;;;;;;;;;;19.03;26.93;102327.77;1735257;82;20155;-87
2022/03/22 11:49:19;;;;;;;;;;;;;;;19.05;26.74;102323.08;1732240;81;20240;-87
2022/03/22 11:51:48;;;;;;;;;;;;;;;19.12;26.64;102320.12;1735431;81;21137;-87
2022/03/22 11:54:13;;;;;;;;;;;;;;;19.13;26.87;102321.30;1737190;80;20167;-88
2022/03/22 11:56:47;;;;;;;;;;;;;;;19.15;26.40;102323.82;1738291;82;20133;-89
2022/03/22 11:59:20;;;;;;;;;;;;;;;19.15;26.61;102315.78;1704868;82;20182;-91
2022/03/22 12:02:03;;;;;;;;;;;;;;;19.19;26.27;102313.97;1733975;80;20219;-89
2022/03/22 12:04:36;;;;;;;;;;;;;;;19.30;26.29;102307.48;1735816;82;21168;-87
2022/03/22 12:07:03;;;;;;;;;;;;;;;19.34;26.33;102304.84;1736710;82;20167;-87
2022/03/22 12:09:29;;;;;;;;;;;;;;;19.40;25.83;102301.16;1734912;80;20519;-87
2022/03/22 12:11:56;;;;;;;;;;;;;;;19.33;25.87;102299.12;1736868;82;20217;-90
2022/03/22 12:14:28;;;;;;;;;;;;;;;19.45;26.32;102301.51;1737254;82;20158;-89
2022/03/22 12:16:57;;;;;;;;;;;;;;;19.40;25.44;102295.80;1742067;82;21141;-89
2022/03/22 12:19:27;;;;;;;;;;;;;;;19.60;25.74;102295.86;1733571;81;20604;-89
2022/03/22 12:21:54;;;;;;;;;;;;;;;19.72;25.73;102298.58;1737608;81;20214;-91
2022/03/22 12:24:25;;;;;;;;;;;;;;;19.59;25.25;102290.16;1740312;81;20214;-90
2022/03/22 12:26:51;;;;;;;;;;;;;;;19.71;25.07;102286.16;1736178;81;20169;-89
2022/03/22 12:29:18;;;;;;;;;;;;;;;19.71;24.89;102286.67;1736352;82;21119;-91
2022/03/22 12:31:49;;;;;;;;;;;;;;;19.62;24.78;102284.47;1734459;82;20608;-94
2022/03/22 12:34:15;;;;;;;;;;;;;;;19.66;25.10;102279.12;1735025;81;20210;-90
2022/03/22 12:36:41;;;;;;;;;;;;;;;19.86;24.98;102278.88;1735046;81;20178;-91
2022/03/22 12:39:06;;;;;;;;;;;;;;;20.00;24.85;102274.70;1735612;81;20169;-89
2022/03/22 12:41:32;;;;;;;;;;;;;;;20.21;24.94;102275.53;1732792;82;21948;-93
2022/03/22 12:44:01;;;;;;;;;;;;;;;20.19;24.06;102274.87;1737625;82;20176;-92
2022/03/22 12:46:28;;;;;;;;;;;;;;;20.15;23.82;102266.81;1734010;82;20194;-91
2022/03/22 12:48:55;;;;;;;;;;;;;;;20.16;23.94;102268.50;1726723;82;21014;-90
2022/03/22 12:51:23;;;;;;;;;;;;;;;20.40;24.12;102267.14;1738351;80;20181;-92
2022/03/22 12:53:48;;;;;;;;;;;;;;;20.68;23.91;102266.80;1735107;80;20182;-91
2022/03/22 12:56:16;;;;;;;;;;;;;;;20.91;23.74;102255.30;1734992;81;20540;-91
2022/03/22 12:58:42;;;;;;;;;;;;;;;21.08;23.84;102248.03;1731146;82;20630;-91
2022/03/22 13:01:10;;;;;;;;;;;;;;;21.25;23.26;102251.48;1735201;82;20127;-93
2022/03/22 13:03:38;;;;;;;;;;;;;;;21.29;22.93;102247.44;1732688;82;20456;-93
2022/03/22 13:06:06;;;;;;;;;;;;;;;21.38;22.64;102236.98;1735295;81;20260;-90
2022/03/22 13:11:26;;;;;;;;;;;;;;;21.44;22.53;102236.75;1732783;82;20319;-95
2022/03/22 13:16:30;;;;;;;;;;;;;;;21.88;22.69;102235.64;1735634;82;20207;-86
2022/03/22 13:18:58;;;;;;;;;;;;;;;22.16;22.69;102232.39;1740207;80;21128;-91
2022/03/22 13:21:25;;;;;;;;;;;;;;;22.35;22.09;102234.27;1731974;81;20198;-88
2022/03/22 13:24:12;;;;;;;;;;;;;;;22.37;22.20;102224.14;1735829;80;20123;-89